sensor_id;sensor_type;location;lat;lon;timestamp;P1;durP1;ratioP1;P2;durP2;ratioP2
57858;SDS011;49153;45.568;11.894;2022-12-18T00:03:54;10.18;;;7.00;;
57858;SDS011;49153;45.568;11.894;2022-12-18T00:06:21;11.77;;;6.63;;
57858;SDS011;49153;45.568;11.894;2022-12-18T00:08:48;11.15;;;6.20;;
57858;SDS011;49153;45.568;11.894;2022-12-18T00:11:15;8.82;;;6.15;;
57858;SDS011;49153;45.568;11.894;2022-12-18T00:13:42;9.27;;;6.13;;
57858;SDS011;49153;45.568;11.894;2022-12-18T00:16:15;9.65;;;6.65;;
57858;SDS011;49153;45.568;11.894;2022-12-18T00:18:45;8.95;;;6.10;;
57858;SDS011;49153;45.568;11.894;2022-12-18T00:21:11;9.70;;;6.47;;
57858;SDS011;49153;45.568;11.894;2022-12-18T00:23:38;10.30;;;6.55;;
57858;SDS011;49153;45.568;11.894;2022-12-18T00:26:06;11.98;;;6.43;;
57858;SDS011;49153;45.568;11.894;2022-12-18T00:28:34;10.77;;;6.55;;
57858;SDS011;49153;45.568;11.894;2022-12-18T00:31:04;11.18;;;7.00;;
57858;SDS011;49153;45.568;11.894;2022-12-18T00:36:00;10.25;;;6.70;;
57858;SDS011;49153;45.568;11.894;2022-12-18T00:38:26;10.90;;;6.78;;
57858;SDS011;49153;45.568;11.894;2022-12-18T00:40:52;10.70;;;6.80;;
57858;SDS011;49153;45.568;11.894;2022-12-18T00:43:17;10.65;;;6.90;;
57858;SDS011;49153;45.568;11.894;2022-12-18T00:45:43;10.20;;;6.40;;
57858;SDS011;49153;45.568;11.894;2022-12-18T00:48:08;11.25;;;6.47;;
57858;SDS011;49153;45.568;11.894;2022-12-18T00:50:33;10.00;;;6.50;;
57858;SDS011;49153;45.568;11.894;2022-12-18T00:52:59;10.85;;;6.55;;
57858;SDS011;49153;45.568;11.894;2022-12-18T00:55:24;9.43;;;6.30;;
57858;SDS011;49153;45.568;11.894;2022-12-18T00:57:50;10.95;;;6.60;;
57858;SDS011;49153;45.568;11.894;2022-12-18T01:00:17;12.55;;;6.55;;
57858;SDS011;49153;45.568;11.894;2022-12-18T01:02:43;8.48;;;5.90;;
57858;SDS011;49153;45.568;11.894;2022-12-18T01:05:09;10.68;;;6.50;;
57858;SDS011;49153;45.568;11.894;2022-12-18T01:07:36;10.50;;;6.18;;
57858;SDS011;49153;45.568;11.894;2022-12-18T01:10:02;10.80;;;6.30;;
57858;SDS011;49153;45.568;11.894;2022-12-18T01:12:29;10.00;;;6.40;;
57858;SDS011;49153;45.568;11.894;2022-12-18T01:14:54;9.07;;;5.80;;
57858;SDS011;49153;45.568;11.894;2022-12-18T01:17:20;10.02;;;5.93;;
57858;SDS011;49153;45.568;11.894;2022-12-18T01:19:45;8.98;;;5.53;;
57858;SDS011;49153;45.568;11.894;2022-12-18T01:22:11;11.27;;;6.07;;
57858;SDS011;49153;45.568;11.894;2022-12-18T01:24:36;9.77;;;5.55;;
57858;SDS011;49153;45.568;11.894;2022-12-18T01:27:02;9.90;;;6.22;;
57858;SDS011;49153;45.568;11.894;2022-12-18T01:29:27;9.40;;;6.18;;
57858;SDS011;49153;45.568;11.894;2022-12-18T01:31:54;10.30;;;6.18;;
57858;SDS011;49153;45.568;11.894;2022-12-18T01:34:20;11.07;;;6.38;;
57858;SDS011;49153;45.568;11.894;2022-12-18T01:36:46;9.35;;;5.72;;
57858;SDS011;49153;45.568;11.894;2022-12-18T01:39:12;10.02;;;6.07;;
57858;SDS011;49153;45.568;11.894;2022-12-18T01:41:39;11.00;;;6.15;;
57858;SDS011;49153;45.568;11.894;2022-12-18T01:49:53;10.00;;;6.30;;
57858;SDS011;49153;45.568;11.894;2022-12-18T01:52:21;10.27;;;6.40;;
57858;SDS011;49153;45.568;11.894;2022-12-18T01:54:48;10.10;;;6.13;;
57858;SDS011;49153;45.568;11.894;2022-12-18T01:57:16;10.57;;;6.70;;
57858;SDS011;49153;45.568;11.894;2022-12-18T01:59:42;11.20;;;6.68;;
57858;SDS011;49153;45.568;11.894;2022-12-18T02:02:10;9.40;;;6.45;;
57858;SDS011;49153;45.568;11.894;2022-12-18T02:04:36;9.20;;;5.82;;
57858;SDS011;49153;45.568;11.894;2022-12-18T02:12:25;11.20;;;6.75;;
57858;SDS011;49153;45.568;11.894;2022-12-18T02:15:01;9.23;;;6.03;;
57858;SDS011;49153;45.568;11.894;2022-12-18T02:25:30;10.73;;;6.15;;
57858;SDS011;49153;45.568;11.894;2022-12-18T02:27:59;10.27;;;6.07;;
57858;SDS011;49153;45.568;11.894;2022-12-18T02:30:28;9.43;;;5.65;;
57858;SDS011;49153;45.568;11.894;2022-12-18T02:32:56;12.15;;;5.63;;
57858;SDS011;49153;45.568;11.894;2022-12-18T02:35:24;9.82;;;6.05;;
57858;SDS011;49153;45.568;11.894;2022-12-18T02:37:52;10.50;;;6.10;;
57858;SDS011;49153;45.568;11.894;2022-12-18T02:40:19;10.60;;;6.00;;
57858;SDS011;49153;45.568;11.894;2022-12-18T02:42:46;10.20;;;5.63;;
57858;SDS011;49153;45.568;11.894;2022-12-18T02:45:12;10.93;;;6.50;;
57858;SDS011;49153;45.568;11.894;2022-12-18T02:47:39;9.68;;;5.38;;
57858;SDS011;49153;45.568;11.894;2022-12-18T02:50:09;9.82;;;6.10;;
57858;SDS011;49153;45.568;11.894;2022-12-18T03:03:56;9.73;;;5.80;;
57858;SDS011;49153;45.568;11.894;2022-12-18T03:06:27;9.35;;;5.75;;
57858;SDS011;49153;45.568;11.894;2022-12-18T03:09:02;10.23;;;5.60;;
57858;SDS011;49153;45.568;11.894;2022-12-18T03:11:34;8.02;;;5.47;;
57858;SDS011;49153;45.568;11.894;2022-12-18T03:14:23;10.95;;;6.47;;
57858;SDS011;49153;45.568;11.894;2022-12-18T03:16:51;9.25;;;6.07;;
57858;SDS011;49153;45.568;11.894;2022-12-18T03:19:21;10.00;;;5.55;;
57858;SDS011;49153;45.568;11.894;2022-12-18T03:21:49;9.23;;;5.63;;
57858;SDS011;49153;45.568;11.894;2022-12-18T03:24:18;10.38;;;6.15;;
57858;SDS011;49153;45.568;11.894;2022-12-18T03:26:46;11.13;;;6.25;;
57858;SDS011;49153;45.568;11.894;2022-12-18T03:29:16;10.55;;;6.13;;
57858;SDS011;49153;45.568;11.894;2022-12-18T03:31:47;9.55;;;5.85;;
57858;SDS011;49153;45.568;11.894;2022-12-18T03:34:26;10.65;;;5.78;;
57858;SDS011;49153;45.568;11.894;2022-12-18T03:36:55;9.98;;;5.93;;
57858;SDS011;49153;45.568;11.894;2022-12-18T03:39:21;9.68;;;6.03;;
57858;SDS011;49153;45.568;11.894;2022-12-18T03:47:59;11.88;;;5.80;;
57858;SDS011;49153;45.568;11.894;2022-12-18T03:50:29;9.55;;;5.45;;
57858;SDS011;49153;45.568;11.894;2022-12-18T03:55:41;10.30;;;6.00;;
57858;SDS011;49153;45.568;11.894;2022-12-18T03:58:08;10.20;;;6.00;;
57858;SDS011;49153;45.568;11.894;2022-12-18T04:00:38;10.60;;;5.93;;
57858;SDS011;49153;45.568;11.894;2022-12-18T04:03:04;9.35;;;5.60;;
57858;SDS011;49153;45.568;11.894;2022-12-18T04:05:32;11.27;;;6.28;;
57858;SDS011;49153;45.568;11.894;2022-12-18T04:07:59;10.95;;;5.85;;
57858;SDS011;49153;45.568;11.894;2022-12-18T04:10:26;10.70;;;6.07;;
57858;SDS011;49153;45.568;11.894;2022-12-18T04:12:52;11.95;;;6.10;;
57858;SDS011;49153;45.568;11.894;2022-12-18T04:15:21;10.00;;;5.65;;
57858;SDS011;49153;45.568;11.894;2022-12-18T04:17:47;10.15;;;6.03;;
57858;SDS011;49153;45.568;11.894;2022-12-18T04:20:14;9.70;;;5.20;;
57858;SDS011;49153;45.568;11.894;2022-12-18T04:22:39;9.10;;;5.15;;
57858;SDS011;49153;45.568;11.894;2022-12-18T04:25:05;8.30;;;4.95;;
57858;SDS011;49153;45.568;11.894;2022-12-18T04:27:30;11.13;;;5.43;;
57858;SDS011;49153;45.568;11.894;2022-12-18T04:29:56;8.50;;;5.50;;
57858;SDS011;49153;45.568;11.894;2022-12-18T04:32:21;8.68;;;5.22;;
57858;SDS011;49153;45.568;11.894;2022-12-18T04:34:47;9.48;;;5.78;;
57858;SDS011;49153;45.568;11.894;2022-12-18T04:37:12;11.45;;;6.10;;
57858;SDS011;49153;45.568;11.894;2022-12-18T04:39:37;10.48;;;6.22;;
57858;SDS011;49153;45.568;11.894;2022-12-18T04:42:03;8.63;;;5.32;;
57858;SDS011;49153;45.568;11.894;2022-12-18T04:44:28;10.02;;;5.80;;
57858;SDS011;49153;45.568;11.894;2022-12-18T04:46:53;9.63;;;5.85;;
57858;SDS011;49153;45.568;11.894;2022-12-18T04:49:19;9.43;;;5.60;;
57858;SDS011;49153;45.568;11.894;2022-12-18T04:51:44;8.95;;;5.85;;
57858;SDS011;49153;45.568;11.894;2022-12-18T04:54:10;11.77;;;6.22;;
57858;SDS011;49153;45.568;11.894;2022-12-18T04:56:35;9.38;;;5.63;;
57858;SDS011;49153;45.568;11.894;2022-12-18T04:59:00;11.23;;;5.78;;
57858;SDS011;49153;45.568;11.894;2022-12-18T05:01:26;8.98;;;5.65;;
57858;SDS011;49153;45.568;11.894;2022-12-18T05:03:51;9.90;;;6.18;;
57858;SDS011;49153;45.568;11.894;2022-12-18T05:06:17;9.45;;;6.25;;
57858;SDS011;49153;45.568;11.894;2022-12-18T05:08:43;10.05;;;5.72;;
57858;SDS011;49153;45.568;11.894;2022-12-18T05:11:09;10.75;;;5.75;;
57858;SDS011;49153;45.568;11.894;2022-12-18T05:13:37;8.55;;;4.80;;
57858;SDS011;49153;45.568;11.894;2022-12-18T05:16:03;9.77;;;5.13;;
57858;SDS011;49153;45.568;11.894;2022-12-18T05:18:29;8.95;;;5.03;;
57858;SDS011;49153;45.568;11.894;2022-12-18T05:20:55;10.93;;;5.72;;
57858;SDS011;49153;45.568;11.894;2022-12-18T05:23:22;9.18;;;5.03;;
57858;SDS011;49153;45.568;11.894;2022-12-18T05:25:52;10.63;;;6.22;;
57858;SDS011;49153;45.568;11.894;2022-12-18T05:28:23;9.95;;;5.60;;
57858;SDS011;49153;45.568;11.894;2022-12-18T05:30:50;10.85;;;5.75;;
57858;SDS011;49153;45.568;11.894;2022-12-18T05:33:21;9.13;;;4.75;;
57858;SDS011;49153;45.568;11.894;2022-12-18T05:35:52;10.32;;;5.90;;
57858;SDS011;49153;45.568;11.894;2022-12-18T05:38:19;11.15;;;5.50;;
57858;SDS011;49153;45.568;11.894;2022-12-18T05:40:47;11.38;;;6.35;;
57858;SDS011;49153;45.568;11.894;2022-12-18T05:43:13;8.57;;;5.30;;
57858;SDS011;49153;45.568;11.894;2022-12-18T05:45:38;8.10;;;5.05;;
57858;SDS011;49153;45.568;11.894;2022-12-18T05:48:04;7.90;;;4.47;;
57858;SDS011;49153;45.568;11.894;2022-12-18T05:50:30;9.90;;;6.07;;
57858;SDS011;49153;45.568;11.894;2022-12-18T05:52:58;10.95;;;6.20;;
57858;SDS011;49153;45.568;11.894;2022-12-18T05:55:23;11.15;;;6.22;;
57858;SDS011;49153;45.568;11.894;2022-12-18T05:57:49;12.70;;;6.57;;
57858;SDS011;49153;45.568;11.894;2022-12-18T06:00:14;12.48;;;6.38;;
57858;SDS011;49153;45.568;11.894;2022-12-18T06:02:40;13.23;;;6.90;;
57858;SDS011;49153;45.568;11.894;2022-12-18T06:05:06;10.93;;;5.93;;
57858;SDS011;49153;45.568;11.894;2022-12-18T06:07:31;9.95;;;5.97;;
57858;SDS011;49153;45.568;11.894;2022-12-18T06:09:57;10.32;;;5.80;;
57858;SDS011;49153;45.568;11.894;2022-12-18T06:12:22;11.38;;;6.55;;
57858;SDS011;49153;45.568;11.894;2022-12-18T06:14:48;11.43;;;7.03;;
57858;SDS011;49153;45.568;11.894;2022-12-18T06:17:13;12.57;;;6.32;;
57858;SDS011;49153;45.568;11.894;2022-12-18T06:19:38;11.25;;;6.43;;
57858;SDS011;49153;45.568;11.894;2022-12-18T06:22:04;11.73;;;6.90;;
57858;SDS011;49153;45.568;11.894;2022-12-18T06:24:29;12.07;;;6.97;;
57858;SDS011;49153;45.568;11.894;2022-12-18T06:26:55;12.55;;;6.55;;
57858;SDS011;49153;45.568;11.894;2022-12-18T06:29:20;12.32;;;7.30;;
57858;SDS011;49153;45.568;11.894;2022-12-18T06:31:46;12.18;;;7.45;;
57858;SDS011;49153;45.568;11.894;2022-12-18T06:34:11;13.13;;;6.78;;
57858;SDS011;49153;45.568;11.894;2022-12-18T06:36:36;12.02;;;6.85;;
57858;SDS011;49153;45.568;11.894;2022-12-18T06:39:02;11.52;;;6.82;;
57858;SDS011;49153;45.568;11.894;2022-12-18T06:41:27;13.38;;;7.43;;
57858;SDS011;49153;45.568;11.894;2022-12-18T06:44:03;10.40;;;6.68;;
57858;SDS011;49153;45.568;11.894;2022-12-18T06:46:29;12.30;;;6.90;;
57858;SDS011;49153;45.568;11.894;2022-12-18T06:48:54;12.23;;;6.57;;
57858;SDS011;49153;45.568;11.894;2022-12-18T06:51:20;11.60;;;6.95;;
57858;SDS011;49153;45.568;11.894;2022-12-18T06:53:52;11.45;;;6.18;;
57858;SDS011;49153;45.568;11.894;2022-12-18T06:56:22;9.63;;;5.90;;
57858;SDS011;49153;45.568;11.894;2022-12-18T06:58:47;11.60;;;6.30;;
57858;SDS011;49153;45.568;11.894;2022-12-18T07:01:13;10.80;;;6.35;;
57858;SDS011;49153;45.568;11.894;2022-12-18T07:03:44;11.70;;;6.30;;
57858;SDS011;49153;45.568;11.894;2022-12-18T07:06:17;13.07;;;7.40;;
57858;SDS011;49153;45.568;11.894;2022-12-18T07:08:45;15.68;;;7.97;;
57858;SDS011;49153;45.568;11.894;2022-12-18T07:11:11;14.10;;;7.22;;
57858;SDS011;49153;45.568;11.894;2022-12-18T07:13:37;12.57;;;6.78;;
57858;SDS011;49153;45.568;11.894;2022-12-18T07:16:07;14.65;;;8.07;;
57858;SDS011;49153;45.568;11.894;2022-12-18T07:18:50;12.57;;;7.28;;
57858;SDS011;49153;45.568;11.894;2022-12-18T07:21:17;13.93;;;7.88;;
57858;SDS011;49153;45.568;11.894;2022-12-18T07:23:44;11.75;;;6.78;;
57858;SDS011;49153;45.568;11.894;2022-12-18T07:26:13;12.48;;;7.53;;
57858;SDS011;49153;45.568;11.894;2022-12-18T07:28:40;15.98;;;8.15;;
57858;SDS011;49153;45.568;11.894;2022-12-18T07:31:06;11.85;;;6.95;;
57858;SDS011;49153;45.568;11.894;2022-12-18T07:33:34;22.27;;;11.88;;
57858;SDS011;49153;45.568;11.894;2022-12-18T07:36:00;28.50;;;14.05;;
57858;SDS011;49153;45.568;11.894;2022-12-18T07:38:30;18.02;;;9.88;;
57858;SDS011;49153;45.568;11.894;2022-12-18T07:41:03;22.60;;;10.55;;
57858;SDS011;49153;45.568;11.894;2022-12-18T07:43:29;17.60;;;8.30;;
57858;SDS011;49153;45.568;11.894;2022-12-18T07:45:56;16.33;;;8.77;;
57858;SDS011;49153;45.568;11.894;2022-12-18T07:48:21;13.75;;;8.25;;
57858;SDS011;49153;45.568;11.894;2022-12-18T07:50:46;15.38;;;8.13;;
57858;SDS011;49153;45.568;11.894;2022-12-18T07:53:12;14.32;;;7.93;;
57858;SDS011;49153;45.568;11.894;2022-12-18T07:55:39;14.27;;;7.95;;
57858;SDS011;49153;45.568;11.894;2022-12-18T07:58:06;15.00;;;8.40;;
57858;SDS011;49153;45.568;11.894;2022-12-18T08:00:32;16.15;;;8.45;;
57858;SDS011;49153;45.568;11.894;2022-12-18T08:02:58;15.95;;;7.88;;
57858;SDS011;49153;45.568;11.894;2022-12-18T08:05:23;14.68;;;8.30;;
57858;SDS011;49153;45.568;11.894;2022-12-18T08:07:49;12.32;;;7.90;;
57858;SDS011;49153;45.568;11.894;2022-12-18T08:10:14;13.77;;;8.25;;
57858;SDS011;49153;45.568;11.894;2022-12-18T08:12:40;13.90;;;8.13;;
57858;SDS011;49153;45.568;11.894;2022-12-18T08:15:06;14.88;;;7.78;;
57858;SDS011;49153;45.568;11.894;2022-12-18T08:17:32;14.65;;;8.68;;
57858;SDS011;49153;45.568;11.894;2022-12-18T08:19:57;14.88;;;7.53;;
57858;SDS011;49153;45.568;11.894;2022-12-18T08:22:22;14.70;;;8.63;;
57858;SDS011;49153;45.568;11.894;2022-12-18T08:24:48;15.15;;;8.35;;
57858;SDS011;49153;45.568;11.894;2022-12-18T08:27:13;15.55;;;8.88;;
57858;SDS011;49153;45.568;11.894;2022-12-18T08:29:39;15.15;;;8.40;;
57858;SDS011;49153;45.568;11.894;2022-12-18T08:32:04;13.98;;;8.25;;
57858;SDS011;49153;45.568;11.894;2022-12-18T08:34:30;15.30;;;8.80;;
57858;SDS011;49153;45.568;11.894;2022-12-18T08:36:55;14.38;;;7.88;;
57858;SDS011;49153;45.568;11.894;2022-12-18T08:39:20;15.32;;;8.63;;
57858;SDS011;49153;45.568;11.894;2022-12-18T08:41:46;15.38;;;9.23;;
57858;SDS011;49153;45.568;11.894;2022-12-18T08:44:31;13.60;;;7.70;;
57858;SDS011;49153;45.568;11.894;2022-12-18T08:47:03;14.75;;;8.00;;
57858;SDS011;49153;45.568;11.894;2022-12-18T08:49:30;15.93;;;9.40;;
57858;SDS011;49153;45.568;11.894;2022-12-18T08:51:55;15.27;;;8.63;;
57858;SDS011;49153;45.568;11.894;2022-12-18T08:54:24;12.93;;;8.10;;
57858;SDS011;49153;45.568;11.894;2022-12-18T08:56:50;14.63;;;8.50;;
57858;SDS011;49153;45.568;11.894;2022-12-18T08:59:16;15.25;;;8.77;;
57858;SDS011;49153;45.568;11.894;2022-12-18T09:01:42;14.57;;;7.95;;
57858;SDS011;49153;45.568;11.894;2022-12-18T09:04:09;13.25;;;7.78;;
57858;SDS011;49153;45.568;11.894;2022-12-18T09:06:34;13.63;;;8.02;;
57858;SDS011;49153;45.568;11.894;2022-12-18T09:09:00;15.93;;;8.80;;
57858;SDS011;49153;45.568;11.894;2022-12-18T09:11:26;12.85;;;7.70;;
57858;SDS011;49153;45.568;11.894;2022-12-18T09:13:53;14.65;;;8.13;;
57858;SDS011;49153;45.568;11.894;2022-12-18T09:16:20;14.80;;;8.43;;
57858;SDS011;49153;45.568;11.894;2022-12-18T09:18:46;16.08;;;8.18;;
57858;SDS011;49153;45.568;11.894;2022-12-18T09:21:13;12.73;;;7.80;;
57858;SDS011;49153;45.568;11.894;2022-12-18T09:23:41;13.98;;;7.82;;
57858;SDS011;49153;45.568;11.894;2022-12-18T09:26:06;16.05;;;8.77;;
57858;SDS011;49153;45.568;11.894;2022-12-18T09:28:32;15.80;;;9.68;;
57858;SDS011;49153;45.568;11.894;2022-12-18T09:30:58;14.95;;;8.88;;
57858;SDS011;49153;45.568;11.894;2022-12-18T09:33:23;14.40;;;7.28;;
57858;SDS011;49153;45.568;11.894;2022-12-18T09:35:49;14.77;;;8.98;;
57858;SDS011;49153;45.568;11.894;2022-12-18T09:38:16;16.40;;;9.55;;
57858;SDS011;49153;45.568;11.894;2022-12-18T09:40:48;12.95;;;7.38;;
57858;SDS011;49153;45.568;11.894;2022-12-18T09:43:33;11.70;;;7.95;;
57858;SDS011;49153;45.568;11.894;2022-12-18T09:46:06;13.57;;;8.15;;
57858;SDS011;49153;45.568;11.894;2022-12-18T09:48:41;12.77;;;7.25;;
57858;SDS011;49153;45.568;11.894;2022-12-18T09:51:15;12.50;;;7.63;;
57858;SDS011;49153;45.568;11.894;2022-12-18T09:53:50;14.15;;;9.02;;
57858;SDS011;49153;45.568;11.894;2022-12-18T09:56:20;12.82;;;7.97;;
57858;SDS011;49153;45.568;11.894;2022-12-18T09:58:55;14.20;;;8.95;;
57858;SDS011;49153;45.568;11.894;2022-12-18T10:01:23;15.18;;;8.13;;
57858;SDS011;49153;45.568;11.894;2022-12-18T10:03:50;14.15;;;8.00;;
57858;SDS011;49153;45.568;11.894;2022-12-18T10:08:58;13.00;;;7.68;;
57858;SDS011;49153;45.568;11.894;2022-12-18T10:11:34;14.00;;;8.43;;
57858;SDS011;49153;45.568;11.894;2022-12-18T10:17:02;13.10;;;8.15;;
57858;SDS011;49153;45.568;11.894;2022-12-18T10:19:50;11.75;;;7.40;;
57858;SDS011;49153;45.568;11.894;2022-12-18T10:27:52;13.23;;;8.50;;
57858;SDS011;49153;45.568;11.894;2022-12-18T10:30:22;13.40;;;7.78;;
57858;SDS011;49153;45.568;11.894;2022-12-18T10:32:49;13.15;;;8.30;;
57858;SDS011;49153;45.568;11.894;2022-12-18T10:38:07;14.05;;;8.07;;
57858;SDS011;49153;45.568;11.894;2022-12-18T10:48:41;16.92;;;8.82;;
57858;SDS011;49153;45.568;11.894;2022-12-18T10:51:28;12.40;;;7.65;;
57858;SDS011;49153;45.568;11.894;2022-12-18T10:54:14;12.35;;;7.35;;
57858;SDS011;49153;45.568;11.894;2022-12-18T10:56:42;13.82;;;8.60;;
57858;SDS011;49153;45.568;11.894;2022-12-18T10:59:09;14.73;;;8.80;;
57858;SDS011;49153;45.568;11.894;2022-12-18T11:01:56;13.85;;;8.32;;
57858;SDS011;49153;45.568;11.894;2022-12-18T11:06:59;14.45;;;8.60;;
57858;SDS011;49153;45.568;11.894;2022-12-18T11:09:33;15.00;;;8.95;;
57858;SDS011;49153;45.568;11.894;2022-12-18T11:12:02;14.27;;;8.15;;
57858;SDS011;49153;45.568;11.894;2022-12-18T11:14:43;13.43;;;8.55;;
57858;SDS011;49153;45.568;11.894;2022-12-18T11:17:32;15.73;;;8.88;;
57858;SDS011;49153;45.568;11.894;2022-12-18T11:20:01;13.23;;;7.22;;
57858;SDS011;49153;45.568;11.894;2022-12-18T11:25:50;12.75;;;7.60;;
57858;SDS011;49153;45.568;11.894;2022-12-18T11:34:12;13.60;;;8.13;;
57858;SDS011;49153;45.568;11.894;2022-12-18T11:36:46;14.40;;;7.95;;
57858;SDS011;49153;45.568;11.894;2022-12-18T11:39:35;13.02;;;8.30;;
57858;SDS011;49153;45.568;11.894;2022-12-18T11:47:42;14.63;;;8.57;;
57858;SDS011;49153;45.568;11.894;2022-12-18T11:50:17;14.23;;;8.48;;
57858;SDS011;49153;45.568;11.894;2022-12-18T11:52:45;13.40;;;7.68;;
57858;SDS011;49153;45.568;11.894;2022-12-18T11:55:13;13.40;;;8.52;;
57858;SDS011;49153;45.568;11.894;2022-12-18T12:00:18;12.55;;;8.07;;
57858;SDS011;49153;45.568;11.894;2022-12-18T12:05:28;12.90;;;8.13;;
57858;SDS011;49153;45.568;11.894;2022-12-18T12:08:23;14.07;;;8.90;;
57858;SDS011;49153;45.568;11.894;2022-12-18T12:11:53;14.25;;;8.35;;
57858;SDS011;49153;45.568;11.894;2022-12-18T12:16:58;15.40;;;9.70;;
57858;SDS011;49153;45.568;11.894;2022-12-18T12:22:08;11.90;;;7.93;;
57858;SDS011;49153;45.568;11.894;2022-12-18T12:25:10;13.30;;;8.55;;
57858;SDS011;49153;45.568;11.894;2022-12-18T12:30:29;13.93;;;8.68;;
57858;SDS011;49153;45.568;11.894;2022-12-18T12:38:57;13.90;;;8.80;;
57858;SDS011;49153;45.568;11.894;2022-12-18T12:41:27;14.48;;;9.15;;
57858;SDS011;49153;45.568;11.894;2022-12-18T12:44:20;14.25;;;8.77;;
57858;SDS011;49153;45.568;11.894;2022-12-18T12:46:50;14.73;;;8.57;;
57858;SDS011;49153;45.568;11.894;2022-12-18T12:49:20;14.80;;;9.45;;
57858;SDS011;49153;45.568;11.894;2022-12-18T12:51:53;14.13;;;8.90;;
57858;SDS011;49153;45.568;11.894;2022-12-18T12:54:24;13.68;;;9.00;;
57858;SDS011;49153;45.568;11.894;2022-12-18T13:06:04;14.57;;;8.98;;
57858;SDS011;49153;45.568;11.894;2022-12-18T13:08:58;13.48;;;8.20;;
57858;SDS011;49153;45.568;11.894;2022-12-18T13:14:19;13.80;;;8.40;;
57858;SDS011;49153;45.568;11.894;2022-12-18T13:16:50;13.20;;;8.40;;
57858;SDS011;49153;45.568;11.894;2022-12-18T13:19:22;13.60;;;8.45;;
57858;SDS011;49153;45.568;11.894;2022-12-18T13:21:56;14.05;;;8.68;;
57858;SDS011;49153;45.568;11.894;2022-12-18T13:24:26;14.45;;;8.57;;
57858;SDS011;49153;45.568;11.894;2022-12-18T13:26:55;15.13;;;9.05;;
57858;SDS011;49153;45.568;11.894;2022-12-18T13:32:22;14.18;;;9.10;;
57858;SDS011;49153;45.568;11.894;2022-12-18T13:35:05;12.48;;;8.32;;
57858;SDS011;49153;45.568;11.894;2022-12-18T13:37:43;13.00;;;8.38;;
57858;SDS011;49153;45.568;11.894;2022-12-18T13:40:49;15.00;;;9.48;;
57858;SDS011;49153;45.568;11.894;2022-12-18T13:46:06;11.57;;;7.63;;
57858;SDS011;49153;45.568;11.894;2022-12-18T13:49:02;15.43;;;8.05;;
57858;SDS011;49153;45.568;11.894;2022-12-18T13:51:32;13.25;;;8.23;;
57858;SDS011;49153;45.568;11.894;2022-12-18T13:56:43;12.63;;;8.10;;
57858;SDS011;49153;45.568;11.894;2022-12-18T13:59:11;13.57;;;8.43;;
57858;SDS011;49153;45.568;11.894;2022-12-18T14:01:41;13.95;;;8.82;;
57858;SDS011;49153;45.568;11.894;2022-12-18T14:04:21;13.68;;;8.23;;
57858;SDS011;49153;45.568;11.894;2022-12-18T14:07:04;13.43;;;8.43;;
57858;SDS011;49153;45.568;11.894;2022-12-18T14:09:36;12.38;;;7.82;;
57858;SDS011;49153;45.568;11.894;2022-12-18T14:12:12;12.85;;;8.30;;
57858;SDS011;49153;45.568;11.894;2022-12-18T14:17:59;12.18;;;8.32;;
57858;SDS011;49153;45.568;11.894;2022-12-18T14:20:28;13.10;;;8.50;;
57858;SDS011;49153;45.568;11.894;2022-12-18T14:22:56;11.48;;;7.68;;
57858;SDS011;49153;45.568;11.894;2022-12-18T14:30:28;11.02;;;7.50;;
57858;SDS011;49153;45.568;11.894;2022-12-18T14:35:34;12.35;;;8.00;;
57858;SDS011;49153;45.568;11.894;2022-12-18T14:40:51;12.43;;;7.40;;
57858;SDS011;49153;45.568;11.894;2022-12-18T14:43:18;13.18;;;7.15;;
57858;SDS011;49153;45.568;11.894;2022-12-18T14:45:44;10.70;;;7.05;;
57858;SDS011;49153;45.568;11.894;2022-12-18T14:50:36;11.25;;;7.32;;
57858;SDS011;49153;45.568;11.894;2022-12-18T14:53:02;11.20;;;7.22;;
57858;SDS011;49153;45.568;11.894;2022-12-18T14:55:28;10.43;;;6.90;;
57858;SDS011;49153;45.568;11.894;2022-12-18T14:57:54;11.77;;;7.50;;
57858;SDS011;49153;45.568;11.894;2022-12-18T15:00:22;11.93;;;7.32;;
57858;SDS011;49153;45.568;11.894;2022-12-18T15:02:53;14.95;;;8.55;;
57858;SDS011;49153;45.568;11.894;2022-12-18T15:05:30;12.30;;;8.55;;
57858;SDS011;49153;45.568;11.894;2022-12-18T15:07:57;16.10;;;9.15;;
57858;SDS011;49153;45.568;11.894;2022-12-18T15:10:31;14.18;;;8.68;;
57858;SDS011;49153;45.568;11.894;2022-12-18T15:18:09;13.70;;;8.30;;
57858;SDS011;49153;45.568;11.894;2022-12-18T15:20:41;12.88;;;8.13;;
57858;SDS011;49153;45.568;11.894;2022-12-18T15:23:14;13.07;;;8.60;;
57858;SDS011;49153;45.568;11.894;2022-12-18T15:25:47;14.52;;;9.25;;
57858;SDS011;49153;45.568;11.894;2022-12-18T15:28:15;12.90;;;8.55;;
57858;SDS011;49153;45.568;11.894;2022-12-18T15:30:59;14.18;;;9.18;;
57858;SDS011;49153;45.568;11.894;2022-12-18T15:33:59;15.57;;;9.45;;
57858;SDS011;49153;45.568;11.894;2022-12-18T15:36:28;15.32;;;9.88;;
57858;SDS011;49153;45.568;11.894;2022-12-18T15:38:56;15.43;;;9.27;;
57858;SDS011;49153;45.568;11.894;2022-12-18T15:41:22;16.25;;;9.65;;
57858;SDS011;49153;45.568;11.894;2022-12-18T15:43:49;15.20;;;9.52;;
57858;SDS011;49153;45.568;11.894;2022-12-18T15:46:18;18.50;;;10.07;;
57858;SDS011;49153;45.568;11.894;2022-12-18T15:48:48;14.25;;;8.68;;
57858;SDS011;49153;45.568;11.894;2022-12-18T15:51:32;14.82;;;9.32;;
57858;SDS011;49153;45.568;11.894;2022-12-18T15:54:01;16.08;;;9.68;;
57858;SDS011;49153;45.568;11.894;2022-12-18T15:56:28;18.48;;;10.10;;
57858;SDS011;49153;45.568;11.894;2022-12-18T15:59:20;16.45;;;9.82;;
57858;SDS011;49153;45.568;11.894;2022-12-18T16:01:47;16.00;;;9.90;;
57858;SDS011;49153;45.568;11.894;2022-12-18T16:04:15;16.60;;;10.30;;
57858;SDS011;49153;45.568;11.894;2022-12-18T16:06:42;15.75;;;9.70;;
57858;SDS011;49153;45.568;11.894;2022-12-18T16:09:08;16.13;;;9.38;;
57858;SDS011;49153;45.568;11.894;2022-12-18T16:11:34;16.80;;;9.63;;
57858;SDS011;49153;45.568;11.894;2022-12-18T16:16:31;15.32;;;9.15;;
57858;SDS011;49153;45.568;11.894;2022-12-18T16:18:57;16.60;;;9.20;;
57858;SDS011;49153;45.568;11.894;2022-12-18T16:21:22;15.15;;;8.70;;
57858;SDS011;49153;45.568;11.894;2022-12-18T16:23:48;16.05;;;8.77;;
57858;SDS011;49153;45.568;11.894;2022-12-18T16:26:13;14.07;;;9.32;;
57858;SDS011;49153;45.568;11.894;2022-12-18T16:28:39;15.77;;;8.90;;
57858;SDS011;49153;45.568;11.894;2022-12-18T16:31:04;14.82;;;8.55;;
57858;SDS011;49153;45.568;11.894;2022-12-18T16:33:30;15.93;;;8.80;;
57858;SDS011;49153;45.568;11.894;2022-12-18T16:35:55;16.83;;;9.73;;
57858;SDS011;49153;45.568;11.894;2022-12-18T16:38:21;18.88;;;10.38;;
57858;SDS011;49153;45.568;11.894;2022-12-18T16:40:47;16.80;;;10.30;;
57858;SDS011;49153;45.568;11.894;2022-12-18T16:43:31;20.92;;;11.55;;
57858;SDS011;49153;45.568;11.894;2022-12-18T16:45:58;21.80;;;12.85;;
57858;SDS011;49153;45.568;11.894;2022-12-18T16:48:24;27.00;;;13.93;;
57858;SDS011;49153;45.568;11.894;2022-12-18T16:50:49;25.30;;;13.20;;
57858;SDS011;49153;45.568;11.894;2022-12-18T16:53:15;31.55;;;13.77;;
57858;SDS011;49153;45.568;11.894;2022-12-18T16:55:40;24.58;;;13.82;;
57858;SDS011;49153;45.568;11.894;2022-12-18T16:58:06;26.52;;;13.60;;
57858;SDS011;49153;45.568;11.894;2022-12-18T17:00:31;25.98;;;13.27;;
57858;SDS011;49153;45.568;11.894;2022-12-18T17:02:57;29.63;;;14.60;;